Time;durP1;ratioP1;P1;durP2;ratioP2;P2;SDS_P1;SDS_P2;PMS_P1;PMS_P2;Temp;Humidity;BMP_temperature;BMP_pressure;BME280_temperature;BME280_humidity;BME280_pressure;Samples;Min_cycle;Max_cycle;Signal;HPM_P1;HPM_P2
2021/10/07 00:02:08;;;;;;;10.02;5.65;;;;;;;;;;5094645;28;20028;-85
2021/10/07 00:04:34;;;;;;;9.13;5.63;;;;;;;;;;5093279;28;20034;-85
2021/10/07 00:07:00;;;;;;;10.45;5.78;;;;;;;;;;5094557;28;20093;-85
2021/10/07 00:09:27;;;;;;;10.05;5.53;;;;;;;;;;5095073;28;20069;-85
2021/10/07 00:11:54;;;;;;;9.85;5.80;;;;;;;;;;5094748;28;20491;-88
2021/10/07 00:14:20;;;;;;;10.80;5.68;;;;;;;;;;5093388;28;20380;-86
2021/10/07 00:16:46;;;;;;;9.38;5.57;;;;;;;;;;5093518;28;20467;-85
2021/10/07 00:19:12;;;;;;;10.70;5.45;;;;;;;;;;5094437;28;20028;-85
2021/10/07 00:21:39;;;;;;;10.55;5.22;;;;;;;;;;5094342;28;20023;-86
2021/10/07 00:24:09;;;;;;;18.42;5.65;;;;;;;;;;5094918;28;20456;-89
2021/10/07 00:26:40;;;;;;;11.57;5.22;;;;;;;;;;5094669;28;20031;-85
2021/10/07 00:31:39;;;;;;;10.50;5.22;;;;;;;;;;5094980;28;20066;-85
2021/10/07 00:39:26;;;;;;;9.90;5.50;;;;;;;;;;5094179;28;20028;-85
2021/10/07 00:41:52;;;;;;;11.05;5.07;;;;;;;;;;5092678;28;20024;-85
2021/10/07 00:44:19;;;;;;;12.73;5.20;;;;;;;;;;5094407;28;20024;-85
2021/10/07 00:46:49;;;;;;;9.50;4.80;;;;;;;;;;5092511;28;20039;-86
2021/10/07 00:49:16;;;;;;;8.77;5.22;;;;;;;;;;5092503;28;20460;-85
2021/10/07 00:51:42;;;;;;;10.65;5.47;;;;;;;;;;5093889;28;20035;-85
2021/10/07 00:54:09;;;;;;;8.45;4.47;;;;;;;;;;5093526;28;20477;-86
2021/10/07 00:56:36;;;;;;;9.93;4.63;;;;;;;;;;5092785;28;20035;-85
2021/10/07 00:59:02;;;;;;;8.80;4.63;;;;;;;;;;5092518;28;20028;-85
2021/10/07 01:01:29;;;;;;;8.65;4.90;;;;;;;;;;5093564;28;20153;-86
2021/10/07 01:03:55;;;;;;;8.38;4.93;;;;;;;;;;5093669;28;20430;-86
2021/10/07 01:06:21;;;;;;;5.75;4.18;;;;;;;;;;5094161;28;20036;-85
2021/10/07 01:08:48;;;;;;;9.68;4.38;;;;;;;;;;5094324;28;20023;-87
2021/10/07 01:11:14;;;;;;;10.27;4.15;;;;;;;;;;5094115;28;20414;-87
2021/10/07 01:13:41;;;;;;;8.27;4.45;;;;;;;;;;5092374;28;20111;-92
2021/10/07 01:16:08;;;;;;;6.50;3.85;;;;;;;;;;5092355;28;20065;-86
2021/10/07 01:18:34;;;;;;;7.80;4.22;;;;;;;;;;5092410;28;20147;-85
2021/10/07 01:21:01;;;;;;;10.27;4.80;;;;;;;;;;5092374;28;20499;-84
2021/10/07 01:23:27;;;;;;;8.50;4.63;;;;;;;;;;5092532;28;20369;-93
2021/10/07 01:25:54;;;;;;;7.10;4.43;;;;;;;;;;5093358;28;20036;-85
2021/10/07 01:28:20;;;;;;;7.97;4.53;;;;;;;;;;5092372;28;20023;-90
2021/10/07 01:30:46;;;;;;;8.45;4.82;;;;;;;;;;5092566;28;20118;-85
2021/10/07 01:33:12;;;;;;;7.70;3.83;;;;;;;;;;5092078;28;20047;-86
2021/10/07 01:35:39;;;;;;;6.72;3.95;;;;;;;;;;5092068;28;20545;-85
2021/10/07 01:38:05;;;;;;;6.90;4.30;;;;;;;;;;5092091;28;20027;-85
2021/10/07 01:40:32;;;;;;;11.35;4.35;;;;;;;;;;5092238;28;20103;-85
2021/10/07 01:42:58;;;;;;;11.02;4.38;;;;;;;;;;5092151;28;20020;-85
2021/10/07 01:45:24;;;;;;;8.93;4.68;;;;;;;;;;5091908;28;20521;-86
2021/10/07 01:47:50;;;;;;;6.93;3.97;;;;;;;;;;5092015;28;20048;-85
2021/10/07 01:50:16;;;;;;;11.10;4.60;;;;;;;;;;5091862;28;20059;-84
2021/10/07 01:52:43;;;;;;;7.05;4.30;;;;;;;;;;5091960;28;20107;-85
2021/10/07 01:55:10;;;;;;;6.70;4.13;;;;;;;;;;5093012;28;20048;-85
2021/10/07 01:57:36;;;;;;;7.75;4.30;;;;;;;;;;5091857;28;20028;-85
2021/10/07 02:00:07;;;;;;;9.63;4.03;;;;;;;;;;5093784;28;20100;-85
2021/10/07 02:02:33;;;;;;;11.13;4.03;;;;;;;;;;5091932;28;20546;-86
2021/10/07 02:04:59;;;;;;;8.20;4.82;;;;;;;;;;5093106;28;20032;-86
2021/10/07 02:07:25;;;;;;;6.47;4.05;;;;;;;;;;5093107;28;20094;-85
2021/10/07 02:09:52;;;;;;;7.68;4.43;;;;;;;;;;5093642;28;20418;-85
2021/10/07 02:12:18;;;;;;;7.93;4.40;;;;;;;;;;5091738;28;20028;-86
2021/10/07 02:14:45;;;;;;;6.97;3.80;;;;;;;;;;5093314;28;20410;-85
2021/10/07 02:17:11;;;;;;;9.25;4.75;;;;;;;;;;5095417;28;20113;-91
2021/10/07 02:19:37;;;;;;;7.80;3.92;;;;;;;;;;5095501;28;20032;-90
2021/10/07 02:22:04;;;;;;;7.57;4.43;;;;;;;;;;5095355;28;20480;-84
2021/10/07 02:24:30;;;;;;;7.43;4.10;;;;;;;;;;5095197;28;20024;-85
2021/10/07 02:26:56;;;;;;;8.70;4.55;;;;;;;;;;5097016;28;20063;-85
2021/10/07 02:29:22;;;;;;;6.63;4.13;;;;;;;;;;5096640;28;20016;-85
2021/10/07 02:31:49;;;;;;;7.85;4.07;;;;;;;;;;5095160;28;20028;-86
2021/10/07 02:34:15;;;;;;;8.25;4.68;;;;;;;;;;5095256;28;20063;-86
2021/10/07 02:36:41;;;;;;;8.38;4.47;;;;;;;;;;5096972;28;20514;-86
2021/10/07 02:39:08;;;;;;;7.20;4.40;;;;;;;;;;5095060;28;20024;-91
2021/10/07 02:41:34;;;;;;;8.30;3.75;;;;;;;;;;5094880;28;20396;-87
2021/10/07 02:44:00;;;;;;;6.28;3.78;;;;;;;;;;5096206;28;20031;-85
2021/10/07 02:46:27;;;;;;;9.18;4.30;;;;;;;;;;5094865;28;20032;-85
2021/10/07 02:48:53;;;;;;;6.80;3.70;;;;;;;;;;5094911;28;20020;-86
2021/10/07 02:51:19;;;;;;;7.10;3.85;;;;;;;;;;5094747;28;20031;-85
2021/10/07 02:53:45;;;;;;;6.75;4.25;;;;;;;;;;5095952;28;20043;-86
2021/10/07 02:56:12;;;;;;;7.95;4.05;;;;;;;;;;5094669;28;20397;-86
2021/10/07 02:58:38;;;;;;;9.00;4.47;;;;;;;;;;5095916;28;20047;-85
2021/10/07 03:01:04;;;;;;;6.95;4.18;;;;;;;;;;5095896;28;20442;-84
2021/10/07 03:03:30;;;;;;;10.52;4.90;;;;;;;;;;5094559;28;20024;-85
2021/10/07 03:05:57;;;;;;;7.70;4.80;;;;;;;;;;5094401;28;20036;-85
2021/10/07 03:08:27;;;;;;;8.05;4.65;;;;;;;;;;5094445;28;20463;-85
2021/10/07 03:10:54;;;;;;;7.72;4.38;;;;;;;;;;5094558;28;20094;-85
2021/10/07 03:13:21;;;;;;;7.90;4.90;;;;;;;;;;5094329;28;20028;-85
2021/10/07 03:15:48;;;;;;;7.75;4.80;;;;;;;;;;5094272;28;20464;-85
2021/10/07 03:18:14;;;;;;;11.00;4.82;;;;;;;;;;5094187;28;20377;-85
2021/10/07 03:20:40;;;;;;;6.72;4.30;;;;;;;;;;5094195;28;20074;-85
2021/10/07 03:23:07;;;;;;;7.30;4.55;;;;;;;;;;5095965;28;20449;-85
2021/10/07 03:25:33;;;;;;;10.43;4.95;;;;;;;;;;5093890;28;20060;-85
2021/10/07 03:28:00;;;;;;;8.20;4.82;;;;;;;;;;5094138;28;20081;-91
2021/10/07 03:30:26;;;;;;;8.63;4.97;;;;;;;;;;5096052;28;20020;-86
2021/10/07 03:32:52;;;;;;;8.68;4.97;;;;;;;;;;5094095;28;20028;-84
2021/10/07 03:35:18;;;;;;;9.52;5.47;;;;;;;;;;5094163;28;20036;-86
2021/10/07 03:37:45;;;;;;;7.25;4.35;;;;;;;;;;5094307;28;20056;-85
2021/10/07 03:40:11;;;;;;;9.15;4.97;;;;;;;;;;5095894;28;20398;-90
2021/10/07 03:42:38;;;;;;;8.13;5.05;;;;;;;;;;5094170;28;20025;-92
2021/10/07 03:45:05;;;;;;;9.02;5.20;;;;;;;;;;5095115;28;20162;-88
2021/10/07 03:47:32;;;;;;;8.98;5.00;;;;;;;;;;5094095;28;20032;-91
2021/10/07 03:49:58;;;;;;;8.75;4.97;;;;;;;;;;5095231;28;20039;-92
2021/10/07 03:52:25;;;;;;;8.60;4.82;;;;;;;;;;5093698;28;20039;-86
2021/10/07 03:54:52;;;;;;;8.48;4.78;;;;;;;;;;5093829;28;20059;-92
2021/10/07 03:57:19;;;;;;;8.02;5.18;;;;;;;;;;5093763;28;20017;-86
2021/10/07 03:59:45;;;;;;;7.82;4.90;;;;;;;;;;5094914;28;20032;-85
2021/10/07 04:02:12;;;;;;;8.68;5.30;;;;;;;;;;5093924;28;20058;-92
2021/10/07 04:04:38;;;;;;;8.75;5.18;;;;;;;;;;5094882;28;20031;-90
2021/10/07 04:07:04;;;;;;;10.25;5.53;;;;;;;;;;5093646;28;20035;-87
2021/10/07 04:09:31;;;;;;;8.77;5.30;;;;;;;;;;5094747;28;20027;-84
2021/10/07 04:11:57;;;;;;;9.02;4.95;;;;;;;;;;5094264;28;20031;-90
2021/10/07 04:14:23;;;;;;;9.32;4.75;;;;;;;;;;5093681;28;20114;-90
2021/10/07 04:16:49;;;;;;;7.75;4.90;;;;;;;;;;5093312;28;20104;-84
2021/10/07 04:19:18;;;;;;;5.90;3.90;;;;;;;;;;5094769;28;20020;-85
2021/10/07 04:21:44;;;;;;;7.80;4.43;;;;;;;;;;5093110;28;20034;-86
2021/10/07 04:24:10;;;;;;;7.60;4.07;;;;;;;;;;5093229;28;20023;-84
2021/10/07 04:26:37;;;;;;;8.25;4.85;;;;;;;;;;5094146;28;20499;-91
2021/10/07 04:29:03;;;;;;;7.72;4.55;;;;;;;;;;5093104;28;20110;-85
2021/10/07 04:31:30;;;;;;;7.03;4.25;;;;;;;;;;5094265;28;20028;-90
2021/10/07 04:33:56;;;;;;;8.02;4.45;;;;;;;;;;5093334;28;20032;-91
2021/10/07 04:36:22;;;;;;;9.18;4.47;;;;;;;;;;5092822;28;20065;-85
2021/10/07 04:38:49;;;;;;;8.13;4.68;;;;;;;;;;5092931;28;20032;-85
2021/10/07 04:41:15;;;;;;;9.40;5.03;;;;;;;;;;5093728;28;20452;-88
2021/10/07 04:43:41;;;;;;;8.07;4.43;;;;;;;;;;5092976;28;20024;-86
2021/10/07 04:46:08;;;;;;;7.97;4.88;;;;;;;;;;5092819;28;20040;-90
2021/10/07 04:48:34;;;;;;;8.77;4.90;;;;;;;;;;5092941;28;20024;-85
2021/10/07 04:51:01;;;;;;;8.05;4.53;;;;;;;;;;5092981;28;20532;-89
2021/10/07 04:53:27;;;;;;;8.13;4.50;;;;;;;;;;5093969;28;20062;-85
2021/10/07 04:55:56;;;;;;;8.73;4.35;;;;;;;;;;5092853;28;20044;-86
2021/10/07 04:58:24;;;;;;;8.05;4.15;;;;;;;;;;5093594;28;20112;-88
2021/10/07 05:00:50;;;;;;;7.63;4.20;;;;;;;;;;5092860;28;20461;-85
2021/10/07 05:03:17;;;;;;;6.38;3.97;;;;;;;;;;5093042;28;20043;-93
2021/10/07 05:05:43;;;;;;;7.90;4.93;;;;;;;;;;5094537;28;20552;-83
2021/10/07 05:08:10;;;;;;;8.02;4.35;;;;;;;;;;5094654;28;20020;-83
2021/10/07 05:10:38;;;;;;;7.68;4.78;;;;;;;;;;5092483;28;20064;-84
2021/10/07 05:13:05;;;;;;;7.45;4.43;;;;;;;;;;5094377;28;20456;-93
2021/10/07 05:15:31;;;;;;;6.85;4.55;;;;;;;;;;5091371;28;20128;-83
2021/10/07 05:17:58;;;;;;;8.18;4.85;;;;;;;;;;5091792;28;20017;-84
2021/10/07 05:20:24;;;;;;;8.70;4.57;;;;;;;;;;5091966;28;20480;-84
2021/10/07 05:22:50;;;;;;;8.18;4.78;;;;;;;;;;5091977;28;20141;-83
2021/10/07 05:25:16;;;;;;;8.48;4.45;;;;;;;;;;5092157;28;20036;-83
2021/10/07 05:27:42;;;;;;;9.52;4.95;;;;;;;;;;5092210;28;20020;-88
2021/10/07 05:30:09;;;;;;;9.20;4.43;;;;;;;;;;5093844;28;20028;-84
2021/10/07 05:32:35;;;;;;;7.95;4.70;;;;;;;;;;5092252;28;20134;-84
2021/10/07 05:35:02;;;;;;;6.32;3.75;;;;;;;;;;5092034;28;20119;-83
2021/10/07 05:37:28;;;;;;;7.18;4.32;;;;;;;;;;5092005;28;20440;-83
2021/10/07 05:39:55;;;;;;;5.88;3.53;;;;;;;;;;5091898;28;20078;-87
2021/10/07 05:42:21;;;;;;;5.85;3.65;;;;;;;;;;5091904;28;20388;-83
2021/10/07 05:44:47;;;;;;;5.35;3.50;;;;;;;;;;5091914;28;20457;-87
2021/10/07 05:47:13;;;;;;;6.88;3.33;;;;;;;;;;5093394;28;20111;-89
2021/10/07 05:49:39;;;;;;;5.20;3.47;;;;;;;;;;5095507;28;20020;-87
2021/10/07 05:52:06;;;;;;;6.55;3.75;;;;;;;;;;5095637;28;20166;-83
2021/10/07 05:54:32;;;;;;;7.18;3.42;;;;;;;;;;5096634;28;20088;-88
2021/10/07 05:56:58;;;;;;;6.75;3.55;;;;;;;;;;5096051;28;20032;-85
2021/10/07 05:59:25;;;;;;;7.50;4.30;;;;;;;;;;5095740;28;20464;-85
2021/10/07 06:01:52;;;;;;;5.55;3.25;;;;;;;;;;5096915;28;20389;-83
2021/10/07 06:04:18;;;;;;;6.00;3.83;;;;;;;;;;5095836;28;20078;-84
2021/10/07 06:06:47;;;;;;;7.57;3.97;;;;;;;;;;5095616;28;20058;-84
2021/10/07 06:09:13;;;;;;;7.85;4.43;;;;;;;;;;5096917;28;20020;-88
2021/10/07 06:11:40;;;;;;;7.50;4.38;;;;;;;;;;5096914;28;20028;-85
2021/10/07 06:14:06;;;;;;;8.35;4.45;;;;;;;;;;5095772;28;20024;-85
2021/10/07 06:16:33;;;;;;;6.53;4.82;;;;;;;;;;5095599;28;20038;-85
2021/10/07 06:19:05;;;;;;;8.07;4.55;;;;;;;;;;5095551;28;20024;-84
2021/10/07 06:21:31;;;;;;;8.25;5.40;;;;;;;;;;5096534;28;20039;-85
2021/10/07 06:23:57;;;;;;;7.70;4.55;;;;;;;;;;5095422;28;20397;-86
2021/10/07 06:26:23;;;;;;;9.80;5.63;;;;;;;;;;5095932;28;20043;-84
2021/10/07 06:28:50;;;;;;;8.35;5.45;;;;;;;;;;5095220;28;20024;-88
2021/10/07 06:31:16;;;;;;;11.70;5.50;;;;;;;;;;5095376;28;20030;-86
2021/10/07 06:33:43;;;;;;;7.57;4.65;;;;;;;;;;5094961;28;20480;-85
2021/10/07 06:36:09;;;;;;;9.63;5.35;;;;;;;;;;5094963;28;20028;-84
2021/10/07 06:38:35;;;;;;;10.18;5.57;;;;;;;;;;5096288;28;20020;-84
2021/10/07 06:41:01;;;;;;;7.72;4.88;;;;;;;;;;5096698;28;20021;-86
2021/10/07 06:43:27;;;;;;;8.25;5.22;;;;;;;;;;5096468;28;20012;-85
2021/10/07 06:45:53;;;;;;;9.38;6.45;;;;;;;;;;5094813;28;20067;-85
2021/10/07 06:48:20;;;;;;;9.10;5.25;;;;;;;;;;5094916;28;20016;-85
2021/10/07 06:50:46;;;;;;;7.80;5.00;;;;;;;;;;5095479;28;20028;-85
2021/10/07 06:53:14;;;;;;;9.98;6.68;;;;;;;;;;5094628;28;20392;-85
2021/10/07 06:55:41;;;;;;;10.63;5.80;;;;;;;;;;5094289;28;20036;-84
2021/10/07 06:58:07;;;;;;;10.30;5.97;;;;;;;;;;5094552;28;20020;-84
2021/10/07 07:00:33;;;;;;;12.02;5.90;;;;;;;;;;5095274;28;20024;-84
2021/10/07 07:03:00;;;;;;;10.70;7.05;;;;;;;;;;5094855;28;20061;-85
2021/10/07 07:05:27;;;;;;;10.60;5.88;;;;;;;;;;5096084;28;20430;-84
2021/10/07 07:07:53;;;;;;;8.93;5.70;;;;;;;;;;5094521;28;20028;-84
2021/10/07 07:10:20;;;;;;;10.85;6.47;;;;;;;;;;5094380;28;20111;-84
2021/10/07 07:12:46;;;;;;;12.85;6.88;;;;;;;;;;5094394;28;20085;-84
2021/10/07 07:15:13;;;;;;;10.45;6.05;;;;;;;;;;5094390;28;20024;-84
2021/10/07 07:17:39;;;;;;;10.85;6.68;;;;;;;;;;5094067;28;20046;-84
2021/10/07 07:20:06;;;;;;;14.50;6.93;;;;;;;;;;5094340;28;20052;-85
2021/10/07 07:22:32;;;;;;;13.73;5.78;;;;;;;;;;5093965;28;20031;-84
2021/10/07 07:24:58;;;;;;;8.90;5.50;;;;;;;;;;5093709;28;20028;-84
2021/10/07 07:27:24;;;;;;;10.88;6.72;;;;;;;;;;5095258;28;20032;-85
2021/10/07 07:29:50;;;;;;;12.52;6.38;;;;;;;;;;5093924;28;20050;-85
2021/10/07 07:32:17;;;;;;;13.18;6.85;;;;;;;;;;5093914;28;20035;-84
2021/10/07 07:34:43;;;;;;;11.63;7.10;;;;;;;;;;5095207;28;20028;-84
2021/10/07 07:37:09;;;;;;;11.93;7.63;;;;;;;;;;5093839;28;20069;-84
2021/10/07 07:39:35;;;;;;;13.32;7.45;;;;;;;;;;5093027;28;20020;-84
2021/10/07 07:42:02;;;;;;;14.48;8.13;;;;;;;;;;5094544;28;20439;-86
2021/10/07 07:44:28;;;;;;;12.68;8.60;;;;;;;;;;5094658;28;20051;-84
2021/10/07 07:46:54;;;;;;;13.75;8.40;;;;;;;;;;5093330;28;20469;-83
2021/10/07 07:49:21;;;;;;;13.30;8.63;;;;;;;;;;5093348;28;20031;-84
2021/10/07 07:51:47;;;;;;;9.50;6.30;;;;;;;;;;5093391;28;20050;-84
2021/10/07 07:54:14;;;;;;;10.60;6.88;;;;;;;;;;5092569;28;20051;-83
2021/10/07 07:56:41;;;;;;;12.23;7.70;;;;;;;;;;5092889;28;20020;-83
2021/10/07 07:59:09;;;;;;;12.00;8.10;;;;;;;;;;5093608;28;20028;-83
2021/10/07 08:01:36;;;;;;;11.07;7.22;;;;;;;;;;5093003;28;20027;-84
2021/10/07 08:04:04;;;;;;;11.43;7.30;;;;;;;;;;5094621;28;20023;-84
2021/10/07 08:06:32;;;;;;;10.43;7.35;;;;;;;;;;5094375;28;20040;-84
2021/10/07 08:08:58;;;;;;;9.27;6.95;;;;;;;;;;5093180;28;20365;-84
2021/10/07 08:11:24;;;;;;;12.25;6.45;;;;;;;;;;5092286;28;20032;-85
2021/10/07 08:13:51;;;;;;;9.68;6.50;;;;;;;;;;5092689;28;20024;-84
2021/10/07 08:16:17;;;;;;;12.32;7.53;;;;;;;;;;5093052;28;20073;-83
2021/10/07 08:18:43;;;;;;;11.95;6.53;;;;;;;;;;5092932;28;20106;-84
2021/10/07 08:21:10;;;;;;;9.43;6.68;;;;;;;;;;5092931;28;20032;-83
2021/10/07 08:23:37;;;;;;;9.98;6.53;;;;;;;;;;5092885;28;20017;-84
2021/10/07 08:26:03;;;;;;;9.38;6.65;;;;;;;;;;5092608;28;20401;-84
2021/10/07 08:28:30;;;;;;;8.25;5.90;;;;;;;;;;5092540;28;20024;-84
2021/10/07 08:30:56;;;;;;;8.23;6.00;;;;;;;;;;5092793;28;20028;-84
2021/10/07 08:33:22;;;;;;;7.75;5.93;;;;;;;;;;5092817;28;20024;-83
2021/10/07 08:35:50;;;;;;;8.25;5.55;;;;;;;;;;5092605;28;20109;-83
2021/10/07 08:38:17;;;;;;;8.00;5.90;;;;;;;;;;5093580;28;20024;-86
2021/10/07 08:40:43;;;;;;;10.13;6.20;;;;;;;;;;5093994;28;20028;-84
2021/10/07 08:43:10;;;;;;;8.65;6.05;;;;;;;;;;5093943;28;20036;-83
2021/10/07 08:45:36;;;;;;;10.88;6.88;;;;;;;;;;5093743;28;20042;-82
2021/10/07 08:48:02;;;;;;;11.68;6.75;;;;;;;;;;5092658;28;20020;-84
2021/10/07 08:50:28;;;;;;;10.02;6.35;;;;;;;;;;5093825;28;20027;-84
2021/10/07 08:52:54;;;;;;;11.00;5.70;;;;;;;;;;5093740;28;20036;-83
2021/10/07 08:55:21;;;;;;;9.93;6.18;;;;;;;;;;5091949;28;20048;-83
2021/10/07 08:57:47;;;;;;;9.60;5.55;;;;;;;;;;5093734;28;20020;-83
2021/10/07 09:00:14;;;;;;;8.75;6.00;;;;;;;;;;5092052;28;20089;-85
2021/10/07 09:02:40;;;;;;;9.20;5.72;;;;;;;;;;5093017;28;20020;-85
2021/10/07 09:05:06;;;;;;;10.50;7.00;;;;;;;;;;5092406;28;20032;-83
2021/10/07 09:07:33;;;;;;;10.38;6.60;;;;;;;;;;5093782;28;20380;-86
2021/10/07 09:09:59;;;;;;;10.27;6.68;;;;;;;;;;5092404;28;20028;-83
2021/10/07 09:12:26;;;;;;;8.27;6.45;;;;;;;;;;5092196;28;20024;-83
2021/10/07 09:14:52;;;;;;;10.05;6.03;;;;;;;;;;5092355;28;20498;-83
2021/10/07 09:17:19;;;;;;;9.23;6.68;;;;;;;;;;5092645;28;20089;-83
2021/10/07 09:19:46;;;;;;;8.82;6.20;;;;;;;;;;5092113;28;20028;-84
2021/10/07 09:22:15;;;;;;;9.45;6.00;;;;;;;;;;5092226;28;20024;-86
2021/10/07 09:24:42;;;;;;;9.23;6.18;;;;;;;;;;5095829;28;20541;-82
2021/10/07 09:27:13;;;;;;;8.65;5.45;;;;;;;;;;5097517;28;20081;-85
2021/10/07 09:29:51;;;;;;;8.10;5.72;;;;;;;;;;5096075;28;20024;-82
2021/10/07 09:32:26;;;;;;;8.68;5.47;;;;;;;;;;5095732;28;20024;-83
2021/10/07 09:34:54;;;;;;;7.85;5.63;;;;;;;;;;5097546;28;20380;-83
2021/10/07 09:37:22;;;;;;;7.88;5.53;;;;;;;;;;5096260;28;20103;-82
2021/10/07 09:39:49;;;;;;;13.07;5.50;;;;;;;;;;5097411;28;20032;-83
2021/10/07 09:42:19;;;;;;;10.38;5.45;;;;;;;;;;5097601;28;20406;-84
2021/10/07 09:44:58;;;;;;;10.23;5.32;;;;;;;;;;5096105;28;20028;-82
2021/10/07 09:47:28;;;;;;;10.75;4.97;;;;;;;;;;5096260;28;20040;-82
2021/10/07 09:50:06;;;;;;;10.27;5.32;;;;;;;;;;5095760;28;20028;-83
2021/10/07 09:52:36;;;;;;;7.20;4.85;;;;;;;;;;5097157;28;20020;-82
2021/10/07 09:55:07;;;;;;;6.80;4.68;;;;;;;;;;5095417;28;20408;-86
2021/10/07 09:57:33;;;;;;;6.65;4.35;;;;;;;;;;5095673;28;20099;-82
2021/10/07 10:00:02;;;;;;;6.57;4.05;;;;;;;;;;5095745;28;20031;-82
2021/10/07 10:02:28;;;;;;;7.50;5.00;;;;;;;;;;5095250;28;20031;-85
2021/10/07 10:04:54;;;;;;;9.68;4.68;;;;;;;;;;5096469;28;20124;-83
2021/10/07 10:07:21;;;;;;;8.45;4.95;;;;;;;;;;5096886;28;20024;-87
2021/10/07 10:09:47;;;;;;;6.47;4.43;;;;;;;;;;5095529;28;20020;-86
2021/10/07 10:12:14;;;;;;;5.95;4.25;;;;;;;;;;5095376;28;20024;-82
2021/10/07 10:14:40;;;;;;;5.93;4.22;;;;;;;;;;5095224;28;20031;-86
2021/10/07 10:17:10;;;;;;;7.40;4.47;;;;;;;;;;5095296;28;20020;-88
2021/10/07 10:19:37;;;;;;;7.25;4.28;;;;;;;;;;5095331;28;20485;-85
2021/10/07 10:22:03;;;;;;;12.30;4.82;;;;;;;;;;5095032;28;20110;-85
2021/10/07 10:24:29;;;;;;;6.13;4.65;;;;;;;;;;5095213;28;20028;-82
2021/10/07 10:27:01;;;;;;;7.38;4.25;;;;;;;;;;5094833;28;20044;-83
2021/10/07 10:29:30;;;;;;;6.78;4.47;;;;;;;;;;5095064;28;20032;-87
2021/10/07 10:31:56;;;;;;;7.38;4.45;;;;;;;;;;5094998;28;20032;-84
2021/10/07 10:34:23;;;;;;;6.70;4.90;;;;;;;;;;5094162;28;20489;-82
2021/10/07 10:37:00;;;;;;;6.53;4.40;;;;;;;;;;5095631;28;20028;-82
2021/10/07 10:39:33;;;;;;;7.40;4.47;;;;;;;;;;5094805;28;20028;-85
2021/10/07 10:41:59;;;;;;;5.35;3.80;;;;;;;;;;5096077;28;20454;-82
2021/10/07 10:44:29;;;;;;;7.68;3.88;;;;;;;;;;5094809;28;20085;-86
2021/10/07 10:46:59;;;;;;;9.05;4.55;;;;;;;;;;5094678;28;20510;-82
2021/10/07 10:49:39;;;;;;;5.55;4.15;;;;;;;;;;5094719;28;20028;-83
2021/10/07 10:52:12;;;;;;;6.38;4.10;;;;;;;;;;5094805;28;20020;-83
2021/10/07 10:54:46;;;;;;;7.57;3.92;;;;;;;;;;5094164;28;20050;-82
2021/10/07 10:57:32;;;;;;;6.15;4.45;;;;;;;;;;5094592;28;20024;-82
2021/10/07 11:00:14;;;;;;;6.28;4.78;;;;;;;;;;5094454;28;20024;-85
2021/10/07 11:02:41;;;;;;;6.45;4.35;;;;;;;;;;5094593;28;20115;-82
2021/10/07 11:05:16;;;;;;;5.47;3.95;;;;;;;;;;5094395;28;20028;-82
2021/10/07 11:07:42;;;;;;;8.70;5.07;;;;;;;;;;5094021;28;20128;-83
2021/10/07 11:10:13;;;;;;;8.10;4.95;;;;;;;;;;5094246;28;20420;-81
2021/10/07 11:12:45;;;;;;;6.13;3.72;;;;;;;;;;5094183;28;20537;-82
2021/10/07 11:15:11;;;;;;;6.47;3.83;;;;;;;;;;5094293;28;20024;-82
2021/10/07 11:17:41;;;;;;;5.88;3.55;;;;;;;;;;5095330;28;20035;-82
2021/10/07 11:20:08;;;;;;;6.38;3.30;;;;;;;;;;5094167;28;20111;-82
2021/10/07 11:22:35;;;;;;;5.20;3.47;;;;;;;;;;5094189;28;20392;-82
2021/10/07 11:25:01;;;;;;;5.55;3.42;;;;;;;;;;5094072;28;20483;-84
2021/10/07 11:27:38;;;;;;;5.07;3.40;;;;;;;;;;5094035;28;20373;-83
2021/10/07 11:30:06;;;;;;;8.45;3.90;;;;;;;;;;5096070;28;20032;-83
2021/10/07 11:32:32;;;;;;;5.20;3.28;;;;;;;;;;5094559;28;20022;-83
2021/10/07 11:35:09;;;;;;;6.97;3.40;;;;;;;;;;5095538;28;20032;-83
2021/10/07 11:37:56;;;;;;;10.30;3.65;;;;;;;;;;5094586;28;20023;-82
2021/10/07 11:40:28;;;;;;;5.53;3.58;;;;;;;;;;5094072;28;20024;-82
2021/10/07 11:42:59;;;;;;;8.70;3.78;;;;;;;;;;5094874;28;20055;-82
2021/10/07 11:45:27;;;;;;;5.13;3.83;;;;;;;;;;5094890;28;20047;-83
2021/10/07 11:47:53;;;;;;;4.95;3.45;;;;;;;;;;5093390;28;20027;-83
2021/10/07 11:50:21;;;;;;;5.35;3.47;;;;;;;;;;5093557;28;20047;-82
2021/10/07 11:52:48;;;;;;;7.10;3.85;;;;;;;;;;5094809;28;20118;-82
2021/10/07 11:55:16;;;;;;;6.70;4.00;;;;;;;;;;5094335;28;20052;-87
2021/10/07 11:57:50;;;;;;;8.23;3.53;;;;;;;;;;5093378;28;20024;-85
2021/10/07 12:00:32;;;;;;;8.35;3.90;;;;;;;;;;5093334;28;20046;-83
2021/10/07 12:03:08;;;;;;;5.10;3.23;;;;;;;;;;5093391;28;20153;-82
2021/10/07 12:05:34;;;;;;;5.90;3.63;;;;;;;;;;5094416;28;20476;-83
2021/10/07 12:08:08;;;;;;;6.93;4.13;;;;;;;;;;5093233;28;20472;-82
2021/10/07 12:10:35;;;;;;;5.40;4.10;;;;;;;;;;5093132;28;20031;-81
2021/10/07 12:13:05;;;;;;;6.22;4.00;;;;;;;;;;5092808;28;20476;-86
2021/10/07 12:15:31;;;;;;;7.57;4.53;;;;;;;;;;5092826;28;20469;-81
2021/10/07 12:17:57;;;;;;;14.75;4.50;;;;;;;;;;5092735;28;20020;-83
2021/10/07 12:20:23;;;;;;;5.70;3.75;;;;;;;;;;5094262;28;20058;-83
2021/10/07 12:22:50;;;;;;;7.72;4.80;;;;;;;;;;5092903;28;20024;-84
2021/10/07 12:25:18;;;;;;;5.82;3.67;;;;;;;;;;5092799;28;20039;-82
2021/10/07 12:27:45;;;;;;;6.63;4.05;;;;;;;;;;5093988;28;20064;-82
2021/10/07 12:30:11;;;;;;;6.13;4.15;;;;;;;;;;5094604;28;20024;-81
2021/10/07 12:32:38;;;;;;;5.80;3.80;;;;;;;;;;5094120;28;20062;-84
2021/10/07 12:35:05;;;;;;;7.90;3.90;;;;;;;;;;5092993;28;20032;-82
2021/10/07 12:37:32;;;;;;;9.27;4.50;;;;;;;;;;5093892;28;20056;-82
2021/10/07 12:39:59;;;;;;;7.40;4.10;;;;;;;;;;5093882;28;20017;-84
2021/10/07 12:42:26;;;;;;;6.90;4.22;;;;;;;;;;5092538;28;20031;-82
2021/10/07 12:44:59;;;;;;;7.65;4.15;;;;;;;;;;5092409;28;20028;-82
2021/10/07 12:47:28;;;;;;;7.88;3.80;;;;;;;;;;5093608;28;20537;-82
2021/10/07 12:49:55;;;;;;;5.10;3.90;;;;;;;;;;5092417;28;20044;-81
2021/10/07 12:52:29;;;;;;;6.82;3.95;;;;;;;;;;5093777;28;20051;-81
2021/10/07 12:54:55;;;;;;;7.70;4.20;;;;;;;;;;5093609;28;20048;-81
2021/10/07 12:57:35;;;;;;;7.22;4.47;;;;;;;;;;5092280;28;20035;-83
2021/10/07 13:00:01;;;;;;;6.70;4.43;;;;;;;;;;5092626;28;20020;-81
2021/10/07 13:02:31;;;;;;;6.13;3.88;;;;;;;;;;5093967;28;20052;-82
2021/10/07 13:04:58;;;;;;;8.35;4.68;;;;;;;;;;5092519;28;20472;-86
2021/10/07 13:07:27;;;;;;;7.80;4.85;;;;;;;;;;5089843;28;20036;-84
2021/10/07 13:09:53;;;;;;;8.32;4.97;;;;;;;;;;5094055;28;20023;-83
2021/10/07 13:12:20;;;;;;;7.30;4.78;;;;;;;;;;5094880;28;20053;-82
2021/10/07 13:14:56;;;;;;;6.85;4.65;;;;;;;;;;5093643;28;20026;-82
2021/10/07 13:17:22;;;;;;;6.20;4.65;;;;;;;;;;5091683;28;20039;-84
2021/10/07 13:19:48;;;;;;;7.55;5.55;;;;;;;;;;5092587;28;20104;-82
2021/10/07 13:22:14;;;;;;;7.85;5.45;;;;;;;;;;5091733;28;20218;-82
2021/10/07 13:24:41;;;;;;;10.10;5.60;;;;;;;;;;5094163;28;20017;-81
2021/10/07 13:27:11;;;;;;;9.73;5.65;;;;;;;;;;5093420;28;20523;-81
2021/10/07 13:29:38;;;;;;;9.05;5.45;;;;;;;;;;5093274;28;20024;-82
2021/10/07 13:32:05;;;;;;;9.88;5.75;;;;;;;;;;5093279;28;20516;-82
2021/10/07 13:34:31;;;;;;;8.20;5.45;;;;;;;;;;5093325;28;20020;-81
2021/10/07 13:36:57;;;;;;;11.70;5.90;;;;;;;;;;5091949;28;20028;-82
2021/10/07 13:39:24;;;;;;;7.72;5.50;;;;;;;;;;5093500;28;20020;-81
2021/10/07 13:41:50;;;;;;;7.80;5.50;;;;;;;;;;5091920;28;20541;-81
2021/10/07 13:44:18;;;;;;;7.75;5.53;;;;;;;;;;5093222;28;20028;-81
2021/10/07 13:46:45;;;;;;;7.72;5.95;;;;;;;;;;5087780;28;20040;-81
2021/10/07 13:49:11;;;;;;;8.98;6.10;;;;;;;;;;5092891;28;20020;-82
2021/10/07 13:51:37;;;;;;;11.35;6.47;;;;;;;;;;5093057;28;20028;-82
2021/10/07 13:54:03;;;;;;;10.82;6.05;;;;;;;;;;5091697;28;20548;-81
2021/10/07 13:56:29;;;;;;;9.77;6.30;;;;;;;;;;5091804;28;20492;-81
2021/10/07 13:58:55;;;;;;;12.88;7.13;;;;;;;;;;5092677;28;20013;-82
2021/10/07 14:01:22;;;;;;;10.18;6.85;;;;;;;;;;5092849;28;20097;-82
2021/10/07 14:03:48;;;;;;;10.70;6.88;;;;;;;;;;5093309;28;20469;-81
2021/10/07 14:06:16;;;;;;;10.20;6.57;;;;;;;;;;5092021;28;20119;-81
2021/10/07 14:08:42;;;;;;;11.07;7.00;;;;;;;;;;5088301;28;20178;-80
2021/10/07 14:11:09;;;;;;;10.35;7.90;;;;;;;;;;5095426;28;20070;-81
2021/10/07 14:13:35;;;;;;;13.32;8.27;;;;;;;;;;5095333;28;20421;-82
2021/10/07 14:16:01;;;;;;;11.73;8.00;;;;;;;;;;5095407;28;20024;-81
2021/10/07 14:18:29;;;;;;;7.45;6.30;;;;;;;;;;5096642;28;20073;-82
2021/10/07 14:20:55;;;;;;;9.60;6.32;;;;;;;;;;5095199;28;20488;-81
2021/10/07 14:23:21;;;;;;;9.55;6.43;;;;;;;;;;5095263;28;20061;-82
2021/10/07 14:25:48;;;;;;;8.38;6.55;;;;;;;;;;5095051;28;20024;-81
2021/10/07 14:28:14;;;;;;;9.63;6.53;;;;;;;;;;5095248;28;20028;-83
2021/10/07 14:30:40;;;;;;;10.88;6.20;;;;;;;;;;5095078;28;20114;-82
2021/10/07 14:33:06;;;;;;;8.85;6.63;;;;;;;;;;5096074;28;20024;-81
2021/10/07 14:35:32;;;;;;;11.25;6.95;;;;;;;;;;5096145;28;20032;-81
2021/10/07 14:37:58;;;;;;;10.40;6.70;;;;;;;;;;5096339;28;20048;-82
2021/10/07 14:40:25;;;;;;;9.85;6.57;;;;;;;;;;5094997;28;20036;-81
2021/10/07 14:42:52;;;;;;;9.63;6.82;;;;;;;;;;5094735;28;20527;-82
2021/10/07 14:45:19;;;;;;;9.55;6.60;;;;;;;;;;5096063;28;20040;-81
2021/10/07 14:47:47;;;;;;;8.55;6.38;;;;;;;;;;5094864;28;20452;-81
2021/10/07 14:50:13;;;;;;;8.95;6.78;;;;;;;;;;5094782;28;20024;-82